Station History

Weather Underground - logo

Station Historical Data
Daily Summary for June 14, 2018 Units:  Both    English   Metric
« Previous Day
Next Day »
Daily Weekly Monthly Yearly Custom
  High: Low: Average:
Temperature: 100.0 °F /  37.8 °C 63.7 °F /  17.6 °C 82.3 °F /  27.9 °C
Dew Point: 62.3 °F /  16.8 °C 40.8 °F /  4.9 °C 54.5 °F /  12.5 °C
Humidity: 74 % 16 % 43 %
Wind Speed: 4.6 mph /  7.4 km/h - 1.3 mph /  2.1 km/h
Wind Gust: 2.3 mph /  3.7 km/h - -
Wind:- - SSW
Pressure: 29.74 in /  1007 hPa 29.61 in /  1002.6 hPa -
Precipitation: 0.00 in /  0 mm    
Historical Graphs
 
 
Tabular Data for June 14, 2018
Time Temperature Dew Point Pressure Wind Wind Speed Wind Gust Humidity Rainfall Rate (Hourly)
00:04 75.9 °F /  24.4 °C 61.5 °F /  16.4 °C 29.65 in /  1003.9 hPa Calm     61 % 0.00 in /  0 mm
00:09 75.4 °F /  24.1 °C 61.5 °F /  16.4 °C 29.65 in /  1003.9 hPa Calm     62 % 0.00 in /  0 mm
00:14 75.3 °F /  24.1 °C 61.4 °F /  16.3 °C 29.65 in /  1003.9 hPa Calm     62 % 0.00 in /  0 mm
00:19 75.3 °F /  24.1 °C 62.3 °F /  16.8 °C 29.65 in /  1003.9 hPa Calm     64 % 0.00 in /  0 mm
00:24 75.1 °F /  23.9 °C 62.1 °F /  16.7 °C 29.65 in /  1003.9 hPa Calm     64 % 0.00 in /  0 mm
00:29 74.9 °F /  23.8 °C 61.5 °F /  16.4 °C 29.66 in /  1004.3 hPa Calm     63 % 0.00 in /  0 mm
00:34 74.7 °F /  23.7 °C 61.7 °F /  16.5 °C 29.66 in /  1004.3 hPa Calm     64 % 0.00 in /  0 mm
00:39 74.6 °F /  23.7 °C 60.3 °F /  15.7 °C 29.66 in /  1004.3 hPa Calm     61 % 0.00 in /  0 mm
00:44 74.3 °F /  23.5 °C 60.9 °F /  16.1 °C 29.66 in /  1004.3 hPa Calm     63 % 0.00 in /  0 mm
00:49 73.7 °F /  23.2 °C 60.8 °F /  16 °C 29.66 in /  1004.3 hPa Calm     64 % 0.00 in /  0 mm
00:54 72.9 °F /  22.7 °C 60.9 °F /  16.1 °C 29.66 in /  1004.3 hPa Calm     66 % 0.00 in /  0 mm
00:59 72.1 °F /  22.3 °C 61.0 °F /  16.1 °C 29.66 in /  1004.3 hPa SE 1.2 mph /  1.9 km/h   68 % 0.00 in /  0 mm
01:05 71.4 °F /  21.9 °C 60.3 °F /  15.7 °C 29.66 in /  1004.3 hPa Calm     68 % 0.00 in /  0 mm
01:09 71.4 °F /  21.9 °C 60.7 °F /  15.9 °C 29.66 in /  1004.3 hPa Calm     69 % 0.00 in /  0 mm
01:14 71.2 °F /  21.8 °C 60.5 °F /  15.8 °C 29.66 in /  1004.3 hPa Calm     69 % 0.00 in /  0 mm
01:19 71.0 °F /  21.7 °C 60.3 °F /  15.7 °C 29.66 in /  1004.3 hPa Calm     69 % 0.00 in /  0 mm
01:24 70.9 °F /  21.6 °C 60.6 °F /  15.9 °C 29.66 in /  1004.3 hPa Calm     70 % 0.00 in /  0 mm
01:29 70.6 °F /  21.4 °C 60.7 °F /  15.9 °C 29.66 in /  1004.3 hPa Calm     71 % 0.00 in /  0 mm
01:34 70.6 °F /  21.4 °C 60.7 °F /  15.9 °C 29.66 in /  1004.3 hPa Calm     71 % 0.00 in /  0 mm
01:39 70.7 °F /  21.5 °C 60.4 °F /  15.8 °C 29.66 in /  1004.3 hPa Calm     70 % 0.00 in /  0 mm
01:45 70.9 °F /  21.6 °C 60.6 °F /  15.9 °C 29.66 in /  1004.3 hPa NE 1.2 mph /  1.9 km/h   70 % 0.00 in /  0 mm
01:49 70.9 °F /  21.6 °C 60.6 °F /  15.9 °C 29.66 in /  1004.3 hPa Calm     70 % 0.00 in /  0 mm
01:54 70.7 °F /  21.5 °C 59.6 °F /  15.3 °C 29.66 in /  1004.3 hPa Calm     68 % 0.00 in /  0 mm
01:59 70.2 °F /  21.2 °C 59.6 °F /  15.3 °C 29.67 in /  1004.6 hPa Calm     69 % 0.00 in /  0 mm
02:04 69.6 °F /  20.9 °C 59.4 °F /  15.2 °C 29.67 in /  1004.6 hPa Calm     70 % 0.00 in /  0 mm
02:09 69.3 °F /  20.7 °C 59.9 °F /  15.5 °C 29.67 in /  1004.6 hPa Calm     72 % 0.00 in /  0 mm
02:14 68.6 °F /  20.3 °C 59.6 °F /  15.3 °C 29.67 in /  1004.6 hPa Calm     73 % 0.00 in /  0 mm
02:19 68.3 °F /  20.2 °C 59.7 °F /  15.4 °C 29.67 in /  1004.6 hPa Calm     74 % 0.00 in /  0 mm
02:24 68.1 °F /  20.1 °C 59.5 °F /  15.3 °C 29.67 in /  1004.6 hPa Calm     74 % 0.00 in /  0 mm
02:30 68.0 °F /  20 °C 59.4 °F /  15.2 °C 29.67 in /  1004.6 hPa Calm     74 % 0.00 in /  0 mm
02:34 67.9 °F /  19.9 °C 59.3 °F /  15.2 °C 29.67 in /  1004.6 hPa Calm     74 % 0.00 in /  0 mm
02:39 67.8 °F /  19.9 °C 59.2 °F /  15.1 °C 29.67 in /  1004.6 hPa Calm     74 % 0.00 in /  0 mm
02:44 67.6 °F /  19.8 °C 59.0 °F /  15 °C 29.67 in /  1004.6 hPa Calm     74 % 0.00 in /  0 mm
02:49 67.5 °F /  19.7 °C 58.9 °F /  14.9 °C 29.67 in /  1004.6 hPa Calm     74 % 0.00 in /  0 mm
02:54 67.3 °F /  19.6 °C 58.3 °F /  14.6 °C 29.67 in /  1004.6 hPa Calm     73 % 0.00 in /  0 mm
02:59 67.4 °F /  19.7 °C 58.4 °F /  14.7 °C 29.67 in /  1004.6 hPa Calm     73 % 0.00 in /  0 mm
03:04 67.3 °F /  19.6 °C 58.3 °F /  14.6 °C 29.67 in /  1004.6 hPa Calm     73 % 0.00 in /  0 mm
03:09 67.3 °F /  19.6 °C 58.7 °F /  14.8 °C 29.67 in /  1004.6 hPa Calm     74 % 0.00 in /  0 mm
03:14 67.2 °F /  19.6 °C 58.2 °F /  14.6 °C 29.67 in /  1004.6 hPa Calm     73 % 0.00 in /  0 mm
03:19 67.3 °F /  19.6 °C 58.0 °F /  14.4 °C 29.67 in /  1004.6 hPa Calm     72 % 0.00 in /  0 mm
03:24 67.2 °F /  19.6 °C 57.1 °F /  13.9 °C 29.68 in /  1005 hPa Calm   0.1 mph /  0.2 km/h 70 % 0.00 in /  0 mm
03:29 67.0 °F /  19.4 °C 56.5 °F /  13.6 °C 29.68 in /  1005 hPa SE 1.2 mph /  1.9 km/h   69 % 0.00 in /  0 mm
03:34 66.7 °F /  19.3 °C 56.2 °F /  13.4 °C 29.68 in /  1005 hPa SE 1.2 mph /  1.9 km/h 0.1 mph /  0.2 km/h 69 % 0.00 in /  0 mm
03:39 66.5 °F /  19.2 °C 56.0 °F /  13.3 °C 29.68 in /  1005 hPa Calm     69 % 0.00 in /  0 mm
03:44 66.3 °F /  19.1 °C 55.8 °F /  13.2 °C 29.68 in /  1005 hPa Calm     69 % 0.00 in /  0 mm
03:49 66.2 °F /  19 °C 56.1 °F /  13.4 °C 29.68 in /  1005 hPa Calm     70 % 0.00 in /  0 mm
03:54 65.9 °F /  18.8 °C 55.8 °F /  13.2 °C 29.68 in /  1005 hPa SE 1.2 mph /  1.9 km/h   70 % 0.00 in /  0 mm
03:59 65.8 °F /  18.8 °C 56.1 °F /  13.4 °C 29.68 in /  1005 hPa Calm     71 % 0.00 in /  0 mm
04:04 65.5 °F /  18.6 °C 55.8 °F /  13.2 °C 29.69 in /  1005.3 hPa Calm     71 % 0.00 in /  0 mm
04:09 65.3 °F /  18.5 °C 56.0 °F /  13.3 °C 29.69 in /  1005.3 hPa SE 1.2 mph /  1.9 km/h   72 % 0.00 in /  0 mm
04:14 65.1 °F /  18.4 °C 56.2 °F /  13.4 °C 29.69 in /  1005.3 hPa Calm     73 % 0.00 in /  0 mm
04:20 65.0 °F /  18.3 °C 56.1 °F /  13.4 °C 29.69 in /  1005.3 hPa Calm     73 % 0.00 in /  0 mm
04:24 65.2 °F /  18.4 °C 55.9 °F /  13.3 °C 29.69 in /  1005.3 hPa Calm     72 % 0.00 in /  0 mm
04:29 65.2 °F /  18.4 °C 56.3 °F /  13.5 °C 29.69 in /  1005.3 hPa Calm     73 % 0.00 in /  0 mm
04:34 65.1 °F /  18.4 °C 55.8 °F /  13.2 °C 29.69 in /  1005.3 hPa Calm     72 % 0.00 in /  0 mm
04:39 65.0 °F /  18.3 °C 56.1 °F /  13.4 °C 29.69 in /  1005.3 hPa Calm     73 % 0.00 in /  0 mm
04:44 64.6 °F /  18.1 °C 55.7 °F /  13.2 °C 29.69 in /  1005.3 hPa Calm     73 % 0.00 in /  0 mm
04:49 64.4 °F /  18 °C 54.8 °F /  12.7 °C 29.69 in /  1005.3 hPa Calm     71 % 0.00 in /  0 mm
04:54 64.4 °F /  18 °C 55.2 °F /  12.9 °C 29.69 in /  1005.3 hPa Calm     72 % 0.00 in /  0 mm
04:59 64.4 °F /  18 °C 54.4 °F /  12.4 °C 29.69 in /  1005.3 hPa ESE 1.2 mph /  1.9 km/h   70 % 0.00 in /  0 mm
05:04 64.5 °F /  18.1 °C 54.5 °F /  12.5 °C 29.69 in /  1005.3 hPa Calm     70 % 0.00 in /  0 mm
05:09 64.4 °F /  18 °C 54.8 °F /  12.7 °C 29.70 in /  1005.6 hPa Calm     71 % 0.00 in /  0 mm
05:14 64.2 °F /  17.9 °C 54.6 °F /  12.6 °C 29.70 in /  1005.6 hPa Calm     71 % 0.00 in /  0 mm
05:19 64.0 °F /  17.8 °C 54.8 °F /  12.7 °C 29.70 in /  1005.6 hPa Calm     72 % 0.00 in /  0 mm
05:24 64.0 °F /  17.8 °C 54.8 °F /  12.7 °C 29.70 in /  1005.6 hPa Calm     72 % 0.00 in /  0 mm
05:29 64.0 °F /  17.8 °C 54.8 °F /  12.7 °C 29.70 in /  1005.6 hPa Calm     72 % 0.00 in /  0 mm
05:34 63.9 °F /  17.7 °C 55.1 °F /  12.8 °C 29.70 in /  1005.6 hPa Calm     73 % 0.00 in /  0 mm
05:39 63.9 °F /  17.7 °C 55.1 °F /  12.8 °C 29.71 in /  1006 hPa Calm     73 % 0.00 in /  0 mm
05:44 63.8 °F /  17.7 °C 55.0 °F /  12.8 °C 29.71 in /  1006 hPa Calm     73 % 0.00 in /  0 mm
05:49 63.7 °F /  17.6 °C 54.9 °F /  12.7 °C 29.71 in /  1006 hPa Calm     73 % 0.00 in /  0 mm
05:54 63.7 °F /  17.6 °C 54.9 °F /  12.7 °C 29.71 in /  1006 hPa Calm     73 % 0.00 in /  0 mm
05:59 63.7 °F /  17.6 °C 54.9 °F /  12.7 °C 29.71 in /  1006 hPa Calm     73 % 0.00 in /  0 mm
06:04 63.8 °F /  17.7 °C 55.0 °F /  12.8 °C 29.71 in /  1006 hPa Calm     73 % 0.00 in /  0 mm
06:09 63.9 °F /  17.7 °C 55.1 °F /  12.8 °C 29.71 in /  1006 hPa Calm     73 % 0.00 in /  0 mm
06:14 63.9 °F /  17.7 °C 55.1 °F /  12.8 °C 29.71 in /  1006 hPa Calm     73 % 0.00 in /  0 mm
06:19 64.0 °F /  17.8 °C 55.2 °F /  12.9 °C 29.72 in /  1006.3 hPa Calm     73 % 0.00 in /  0 mm
06:24 64.1 °F /  17.8 °C 55.3 °F /  12.9 °C 29.72 in /  1006.3 hPa Calm     73 % 0.00 in /  0 mm
06:29 64.5 °F /  18.1 °C 55.7 °F /  13.2 °C 29.72 in /  1006.3 hPa Calm     73 % 0.00 in /  0 mm
06:34 64.8 °F /  18.2 °C 55.6 °F /  13.1 °C 29.72 in /  1006.3 hPa Calm     72 % 0.00 in /  0 mm
06:39 65.6 °F /  18.7 °C 55.9 °F /  13.3 °C 29.72 in /  1006.3 hPa Calm     71 % 0.00 in /  0 mm
06:44 67.1 °F /  19.5 °C 55.8 °F /  13.2 °C 29.73 in /  1006.7 hPa Calm     67 % 0.00 in /  0 mm
06:49 68.5 °F /  20.3 °C 56.3 °F /  13.5 °C 29.73 in /  1006.7 hPa SSE 2.3 mph /  3.7 km/h   65 % 0.00 in /  0 mm
06:54 69.4 °F /  20.8 °C 56.3 °F /  13.5 °C 29.73 in /  1006.7 hPa South 1.2 mph /  1.9 km/h   63 % 0.00 in /  0 mm
06:59 70.0 °F /  21.1 °C 56.4 °F /  13.6 °C 29.73 in /  1006.7 hPa Calm     62 % 0.00 in /  0 mm
07:04 70.9 °F /  21.6 °C 56.3 °F /  13.5 °C 29.73 in /  1006.7 hPa Calm     60 % 0.00 in /  0 mm
07:09 71.6 °F /  22 °C 56.5 °F /  13.6 °C 29.73 in /  1006.7 hPa Calm     59 % 0.00 in /  0 mm
07:14 72.3 °F /  22.4 °C 56.2 °F /  13.4 °C 29.73 in /  1006.7 hPa SSE 1.2 mph /  1.9 km/h   57 % 0.00 in /  0 mm
07:19 72.9 °F /  22.7 °C 56.3 °F /  13.5 °C 29.73 in /  1006.7 hPa SSW 1.2 mph /  1.9 km/h 0.3 mph /  0.5 km/h 56 % 0.00 in /  0 mm
07:24 73.4 °F /  23 °C 56.2 °F /  13.4 °C 29.73 in /  1006.7 hPa East 1.2 mph /  1.9 km/h   55 % 0.00 in /  0 mm
07:29 73.9 °F /  23.3 °C 56.2 °F /  13.4 °C 29.73 in /  1006.7 hPa SSW 2.3 mph /  3.7 km/h 0.2 mph /  0.3 km/h 54 % 0.00 in /  0 mm
07:35 74.4 °F /  23.6 °C 56.7 °F /  13.7 °C 29.73 in /  1006.7 hPa South 2.3 mph /  3.7 km/h 0.6 mph /  1 km/h 54 % 0.00 in /  0 mm
07:39 74.9 °F /  23.8 °C 56.6 °F /  13.7 °C 29.73 in /  1006.7 hPa SSW 1.2 mph /  1.9 km/h 0.3 mph /  0.5 km/h 53 % 0.00 in /  0 mm
07:44 75.1 °F /  23.9 °C 56.8 °F /  13.8 °C 29.74 in /  1007 hPa East 2.3 mph /  3.7 km/h 0.9 mph /  1.4 km/h 53 % 0.00 in /  0 mm
07:49 75.6 °F /  24.2 °C 56.7 °F /  13.7 °C 29.74 in /  1007 hPa South 2.3 mph /  3.7 km/h 1.0 mph /  1.6 km/h 52 % 0.00 in /  0 mm
07:54 75.9 °F /  24.4 °C 57.0 °F /  13.9 °C 29.74 in /  1007 hPa SE 1.2 mph /  1.9 km/h   52 % 0.00 in /  0 mm
07:59 76.2 °F /  24.6 °C 56.7 °F /  13.7 °C 29.74 in /  1007 hPa SSE 2.3 mph /  3.7 km/h 0.8 mph /  1.3 km/h 51 % 0.00 in /  0 mm
08:04 76.6 °F /  24.8 °C 58.2 °F /  14.6 °C 29.73 in /  1006.7 hPa SE 1.2 mph /  1.9 km/h 0.4 mph /  0.6 km/h 53 % 0.00 in /  0 mm
08:09 77.0 °F /  25 °C 57.5 °F /  14.2 °C 29.73 in /  1006.7 hPa SW 2.3 mph /  3.7 km/h 0.1 mph /  0.2 km/h 51 % 0.00 in /  0 mm
08:14 77.6 °F /  25.3 °C 58.6 °F /  14.8 °C 29.74 in /  1007 hPa SSW 1.2 mph /  1.9 km/h 0.1 mph /  0.2 km/h 52 % 0.00 in /  0 mm
08:19 78.3 °F /  25.7 °C 58.7 °F /  14.8 °C 29.74 in /  1007 hPa South 1.0 mph /  1.6 km/h 0.3 mph /  0.5 km/h 51 % 0.00 in /  0 mm
08:24 79.1 °F /  26.2 °C 59.4 °F /  15.2 °C 29.74 in /  1007 hPa Calm     51 % 0.00 in /  0 mm
08:29 79.7 °F /  26.5 °C 57.7 °F /  14.3 °C 29.74 in /  1007 hPa ESE 2.3 mph /  3.7 km/h 0.3 mph /  0.5 km/h 47 % 0.00 in /  0 mm
08:34 79.2 °F /  26.2 °C 57.2 °F /  14 °C 29.74 in /  1007 hPa SSE 3.5 mph /  5.6 km/h 0.2 mph /  0.3 km/h 47 % 0.00 in /  0 mm
08:39 79.6 °F /  26.4 °C 58.2 °F /  14.6 °C 29.73 in /  1006.7 hPa SE 1.0 mph /  1.6 km/h 0.3 mph /  0.5 km/h 48 % 0.00 in /  0 mm
08:44 80.1 °F /  26.7 °C 58.0 °F /  14.4 °C 29.74 in /  1007 hPa East 2.3 mph /  3.7 km/h 0.4 mph /  0.6 km/h 47 % 0.00 in /  0 mm
08:49 80.5 °F /  26.9 °C 58.4 °F /  14.7 °C 29.73 in /  1006.7 hPa South 2.3 mph /  3.7 km/h 0.7 mph /  1.1 km/h 47 % 0.00 in /  0 mm
08:55 80.9 °F /  27.2 °C 59.4 °F /  15.2 °C 29.73 in /  1006.7 hPa SSE 1.2 mph /  1.9 km/h 0.1 mph /  0.2 km/h 48 % 0.00 in /  0 mm
08:59 81.2 °F /  27.3 °C 58.5 °F /  14.7 °C 29.73 in /  1006.7 hPa SSW 3.5 mph /  5.6 km/h 0.3 mph /  0.5 km/h 46 % 0.00 in /  0 mm
09:04 81.6 °F /  27.6 °C 59.4 °F /  15.2 °C 29.73 in /  1006.7 hPa SE 2.3 mph /  3.7 km/h 0.4 mph /  0.6 km/h 47 % 0.00 in /  0 mm
09:09 81.8 °F /  27.7 °C 58.4 °F /  14.7 °C 29.73 in /  1006.7 hPa SSE 2.3 mph /  3.7 km/h 1.4 mph /  2.3 km/h 45 % 0.00 in /  0 mm
09:14 82.1 °F /  27.8 °C 59.3 °F /  15.2 °C 29.73 in /  1006.7 hPa SSE 2.3 mph /  3.7 km/h 0.7 mph /  1.1 km/h 46 % 0.00 in /  0 mm
09:19 82.1 °F /  27.8 °C 59.3 °F /  15.2 °C 29.73 in /  1006.7 hPa SW 4.0 mph /  6.4 km/h 1.0 mph /  1.6 km/h 46 % 0.00 in /  0 mm
09:24 82.4 °F /  28 °C 58.3 °F /  14.6 °C 29.73 in /  1006.7 hPa SSW 2.3 mph /  3.7 km/h 0.2 mph /  0.3 km/h 44 % 0.00 in /  0 mm
09:29 82.7 °F /  28.2 °C 58.6 °F /  14.8 °C 29.73 in /  1006.7 hPa ESE 3.5 mph /  5.6 km/h 0.6 mph /  1 km/h 44 % 0.00 in /  0 mm
09:34 83.0 °F /  28.3 °C 59.5 °F /  15.3 °C 29.73 in /  1006.7 hPa SSE 1.2 mph /  1.9 km/h 0.2 mph /  0.3 km/h 45 % 0.00 in /  0 mm
09:39 83.5 °F /  28.6 °C 58.0 °F /  14.4 °C 29.73 in /  1006.7 hPa SSW 1.2 mph /  1.9 km/h 0.1 mph /  0.2 km/h 42 % 0.00 in /  0 mm
09:44 83.8 °F /  28.8 °C 58.9 °F /  14.9 °C 29.73 in /  1006.7 hPa SSE 1.2 mph /  1.9 km/h 0.6 mph /  1 km/h 43 % 0.00 in /  0 mm
09:49 84.1 °F /  28.9 °C 57.9 °F /  14.4 °C 29.73 in /  1006.7 hPa East 3.5 mph /  5.6 km/h 1.5 mph /  2.4 km/h 41 % 0.00 in /  0 mm
09:54 84.4 °F /  29.1 °C 58.8 °F /  14.9 °C 29.73 in /  1006.7 hPa SSW 3.0 mph /  4.8 km/h 0.5 mph /  0.8 km/h 42 % 0.00 in /  0 mm
09:59 84.8 °F /  29.3 °C 59.8 °F /  15.4 °C 29.73 in /  1006.7 hPa South 3.5 mph /  5.6 km/h 0.6 mph /  1 km/h 43 % 0.00 in /  0 mm
10:04 84.8 °F /  29.3 °C 58.5 °F /  14.7 °C 29.73 in /  1006.7 hPa ESE 2.3 mph /  3.7 km/h 0.8 mph /  1.3 km/h 41 % 0.00 in /  0 mm
10:09 84.8 °F /  29.3 °C 59.2 °F /  15.1 °C 29.73 in /  1006.7 hPa South 3.5 mph /  5.6 km/h 0.5 mph /  0.8 km/h 42 % 0.00 in /  0 mm
10:14 85.2 °F /  29.6 °C 60.2 °F /  15.7 °C 29.73 in /  1006.7 hPa ESE 1.2 mph /  1.9 km/h 0.6 mph /  1 km/h 43 % 0.00 in /  0 mm
10:19 85.5 °F /  29.7 °C 59.1 °F /  15.1 °C 29.73 in /  1006.7 hPa SE 3.5 mph /  5.6 km/h 0.3 mph /  0.5 km/h 41 % 0.00 in /  0 mm
10:24 85.6 °F /  29.8 °C 58.5 °F /  14.7 °C 29.73 in /  1006.7 hPa South 3.5 mph /  5.6 km/h 1.4 mph /  2.3 km/h 40 % 0.00 in /  0 mm
10:29 85.5 °F /  29.7 °C 59.1 °F /  15.1 °C 29.73 in /  1006.7 hPa NNE 3.5 mph /  5.6 km/h 2.1 mph /  3.4 km/h 41 % 0.00 in /  0 mm
10:34 86.0 °F /  30 °C 59.6 °F /  15.3 °C 29.73 in /  1006.7 hPa ENE 2.3 mph /  3.7 km/h 0.1 mph /  0.2 km/h 41 % 0.00 in /  0 mm
10:39 86.6 °F /  30.3 °C 60.8 °F /  16 °C 29.73 in /  1006.7 hPa SSE 2.0 mph /  3.2 km/h 0.6 mph /  1 km/h 42 % 0.00 in /  0 mm
10:44 86.9 °F /  30.5 °C 59.7 °F /  15.4 °C 29.73 in /  1006.7 hPa SSE 4.6 mph /  7.4 km/h 2.3 mph /  3.7 km/h 40 % 0.00 in /  0 mm
10:49 87.0 °F /  30.6 °C 59.8 °F /  15.4 °C 29.73 in /  1006.7 hPa South 2.3 mph /  3.7 km/h 1.1 mph /  1.8 km/h 40 % 0.00 in /  0 mm
10:55 87.6 °F /  30.9 °C 59.6 °F /  15.3 °C 29.73 in /  1006.7 hPa ENE 4.6 mph /  7.4 km/h 2.1 mph /  3.4 km/h 39 % 0.00 in /  0 mm
10:59 87.5 °F /  30.8 °C 58.8 °F /  14.9 °C 29.73 in /  1006.7 hPa South 1.2 mph /  1.9 km/h   38 % 0.00 in /  0 mm
11:04 88.0 °F /  31.1 °C 60.7 °F /  15.9 °C 29.73 in /  1006.7 hPa SE 3.5 mph /  5.6 km/h 1.1 mph /  1.8 km/h 40 % 0.00 in /  0 mm
11:10 88.3 °F /  31.3 °C 58.7 °F /  14.8 °C 29.73 in /  1006.7 hPa NNW 2.3 mph /  3.7 km/h 0.7 mph /  1.1 km/h 37 % 0.00 in /  0 mm
11:14 88.3 °F /  31.3 °C 58.0 °F /  14.4 °C 29.73 in /  1006.7 hPa North 3.5 mph /  5.6 km/h 1.7 mph /  2.7 km/h 36 % 0.00 in /  0 mm
11:19 88.6 °F /  31.4 °C 59.0 °F /  15 °C 29.73 in /  1006.7 hPa NNW 2.3 mph /  3.7 km/h 1.5 mph /  2.4 km/h 37 % 0.00 in /  0 mm
11:24 89.0 °F /  31.7 °C 57.8 °F /  14.3 °C 29.73 in /  1006.7 hPa NNW 2.3 mph /  3.7 km/h 0.2 mph /  0.3 km/h 35 % 0.00 in /  0 mm
11:29 89.1 °F /  31.7 °C 61.6 °F /  16.4 °C 29.73 in /  1006.7 hPa SSE 2.3 mph /  3.7 km/h   40 % 0.00 in /  0 mm
11:34 89.4 °F /  31.9 °C 58.9 °F /  14.9 °C 29.73 in /  1006.7 hPa WSW 1.2 mph /  1.9 km/h 0.9 mph /  1.4 km/h 36 % 0.00 in /  0 mm
11:39 89.7 °F /  32.1 °C 56.8 °F /  13.8 °C 29.73 in /  1006.7 hPa WNW 2.3 mph /  3.7 km/h 1.0 mph /  1.6 km/h 33 % 0.00 in /  0 mm
11:45 90.0 °F /  32.2 °C 60.2 °F /  15.7 °C 29.73 in /  1006.7 hPa ENE 1.2 mph /  1.9 km/h 0.1 mph /  0.2 km/h 37 % 0.00 in /  0 mm
11:49 90.1 °F /  32.3 °C 58.0 °F /  14.4 °C 29.73 in /  1006.7 hPa NW 2.3 mph /  3.7 km/h 0.6 mph /  1 km/h 34 % 0.00 in /  0 mm
11:54 90.0 °F /  32.2 °C 57.9 °F /  14.4 °C 29.72 in /  1006.3 hPa WSW 2.0 mph /  3.2 km/h 0.6 mph /  1 km/h 34 % 0.00 in /  0 mm
11:59 90.7 °F /  32.6 °C 56.8 °F /  13.8 °C 29.73 in /  1006.7 hPa WNW 2.3 mph /  3.7 km/h 1.0 mph /  1.6 km/h 32 % 0.00 in /  0 mm
12:04 91.1 °F /  32.8 °C 58.8 °F /  14.9 °C 29.73 in /  1006.7 hPa SE 1.0 mph /  1.6 km/h   34 % 0.00 in /  0 mm
12:10 91.6 °F /  33.1 °C 58.4 °F /  14.7 °C 29.73 in /  1006.7 hPa NW 1.2 mph /  1.9 km/h 0.5 mph /  0.8 km/h 33 % 0.00 in /  0 mm
12:14 91.3 °F /  32.9 °C 56.4 °F /  13.6 °C 29.73 in /  1006.7 hPa ESE 2.3 mph /  3.7 km/h 1.0 mph /  1.6 km/h 31 % 0.00 in /  0 mm
12:19 91.2 °F /  32.9 °C 56.3 °F /  13.5 °C 29.72 in /  1006.3 hPa NW 2.3 mph /  3.7 km/h 0.7 mph /  1.1 km/h 31 % 0.00 in /  0 mm
12:24 91.2 °F /  32.9 °C 56.3 °F /  13.5 °C 29.72 in /  1006.3 hPa WNW 1.2 mph /  1.9 km/h 0.9 mph /  1.4 km/h 31 % 0.00 in /  0 mm
12:29 90.9 °F /  32.7 °C 57.0 °F /  13.9 °C 29.72 in /  1006.3 hPa NW 1.2 mph /  1.9 km/h 1.3 mph /  2.1 km/h 32 % 0.00 in /  0 mm
12:34 91.3 °F /  32.9 °C 58.2 °F /  14.6 °C 29.72 in /  1006.3 hPa NW 1.2 mph /  1.9 km/h 0.9 mph /  1.4 km/h 33 % 0.00 in /  0 mm
12:39 91.9 °F /  33.3 °C 57.8 °F /  14.3 °C 29.72 in /  1006.3 hPa NW 3.5 mph /  5.6 km/h 0.6 mph /  1 km/h 32 % 0.00 in /  0 mm
12:44 91.9 °F /  33.3 °C 59.5 °F /  15.3 °C 29.72 in /  1006.3 hPa West 2.3 mph /  3.7 km/h 1.2 mph /  1.9 km/h 34 % 0.00 in /  0 mm
12:49 92.4 °F /  33.6 °C 60.0 °F /  15.6 °C 29.71 in /  1006 hPa SSE 2.3 mph /  3.7 km/h 0.4 mph /  0.6 km/h 34 % 0.00 in /  0 mm
12:54 93.0 °F /  33.9 °C 60.5 °F /  15.8 °C 29.71 in /  1006 hPa WNW 2.3 mph /  3.7 km/h 0.6 mph /  1 km/h 34 % 0.00 in /  0 mm
12:59 93.4 °F /  34.1 °C 59.1 °F /  15.1 °C 29.71 in /  1006 hPa NW 1.2 mph /  1.9 km/h   32 % 0.00 in /  0 mm
13:04 93.7 °F /  34.3 °C 59.4 °F /  15.2 °C 29.71 in /  1006 hPa SE 2.3 mph /  3.7 km/h 0.5 mph /  0.8 km/h 32 % 0.00 in /  0 mm
13:10 94.1 °F /  34.5 °C 57.9 °F /  14.4 °C 29.71 in /  1006 hPa North 2.3 mph /  3.7 km/h 0.7 mph /  1.1 km/h 30 % 0.00 in /  0 mm
13:14 94.3 °F /  34.6 °C 60.8 °F /  16 °C 29.70 in /  1005.6 hPa SSE 2.3 mph /  3.7 km/h 0.2 mph /  0.3 km/h 33 % 0.00 in /  0 mm
13:19 95.1 °F /  35.1 °C 58.8 °F /  14.9 °C 29.70 in /  1005.6 hPa NW 2.3 mph /  3.7 km/h 0.9 mph /  1.4 km/h 30 % 0.00 in /  0 mm
13:24 95.1 °F /  35.1 °C 56.9 °F /  13.8 °C 29.70 in /  1005.6 hPa NW 1.2 mph /  1.9 km/h 0.5 mph /  0.8 km/h 28 % 0.00 in /  0 mm
13:29 95.5 °F /  35.3 °C 60.1 °F /  15.6 °C 29.70 in /  1005.6 hPa NE 1.2 mph /  1.9 km/h 0.8 mph /  1.3 km/h 31 % 0.00 in /  0 mm
13:34 95.8 °F /  35.4 °C 58.4 °F /  14.7 °C 29.70 in /  1005.6 hPa WNW 3.5 mph /  5.6 km/h 0.9 mph /  1.4 km/h 29 % 0.00 in /  0 mm
13:39 96.1 °F /  35.6 °C 61.5 °F /  16.4 °C 29.70 in /  1005.6 hPa SSE 1.2 mph /  1.9 km/h   32 % 0.00 in /  0 mm
13:45 96.2 °F /  35.7 °C 61.6 °F /  16.4 °C 29.69 in /  1005.3 hPa NW 3.0 mph /  4.8 km/h 0.9 mph /  1.4 km/h 32 % 0.00 in /  0 mm
13:49 96.0 °F /  35.6 °C 58.6 °F /  14.8 °C 29.69 in /  1005.3 hPa NW 2.3 mph /  3.7 km/h 1.1 mph /  1.8 km/h 29 % 0.00 in /  0 mm
13:54 96.0 °F /  35.6 °C 57.6 °F /  14.2 °C 29.69 in /  1005.3 hPa WNW 2.3 mph /  3.7 km/h 1.2 mph /  1.9 km/h 28 % 0.00 in /  0 mm
13:59 95.9 °F /  35.5 °C 56.5 °F /  13.6 °C 29.69 in /  1005.3 hPa NNW 3.5 mph /  5.6 km/h   27 % 0.00 in /  0 mm
14:04 96.2 °F /  35.7 °C 57.8 °F /  14.3 °C 29.68 in /  1005 hPa NNW 2.3 mph /  3.7 km/h 1.0 mph /  1.6 km/h 28 % 0.00 in /  0 mm
14:09 96.2 °F /  35.7 °C 58.8 °F /  14.9 °C 29.68 in /  1005 hPa SW 3.5 mph /  5.6 km/h 0.7 mph /  1.1 km/h 29 % 0.00 in /  0 mm
14:14 96.5 °F /  35.8 °C 58.1 °F /  14.5 °C 29.68 in /  1005 hPa NW 2.0 mph /  3.2 km/h 1.0 mph /  1.6 km/h 28 % 0.00 in /  0 mm
14:19 97.5 °F /  36.4 °C 57.9 °F /  14.4 °C 29.68 in /  1005 hPa East 1.2 mph /  1.9 km/h 1.5 mph /  2.4 km/h 27 % 0.00 in /  0 mm
14:24 97.3 °F /  36.3 °C 56.7 °F /  13.7 °C 29.68 in /  1005 hPa NW 3.5 mph /  5.6 km/h 0.9 mph /  1.4 km/h 26 % 0.00 in /  0 mm
14:29 97.2 °F /  36.2 °C 56.6 °F /  13.7 °C 29.68 in /  1005 hPa WSW 3.5 mph /  5.6 km/h 0.2 mph /  0.3 km/h 26 % 0.00 in /  0 mm
14:35 97.8 °F /  36.6 °C 54.9 °F /  12.7 °C 29.68 in /  1005 hPa WNW 1.2 mph /  1.9 km/h 0.4 mph /  0.6 km/h 24 % 0.00 in /  0 mm
14:39 97.3 °F /  36.3 °C 55.6 °F /  13.1 °C 29.68 in /  1005 hPa NW 2.3 mph /  3.7 km/h 1.9 mph /  3.1 km/h 25 % 0.00 in /  0 mm
14:45 97.6 °F /  36.4 °C 58.0 °F /  14.4 °C 29.67 in /  1004.6 hPa SSE 1.2 mph /  1.9 km/h 0.8 mph /  1.3 km/h 27 % 0.00 in /  0 mm
14:49 97.9 °F /  36.6 °C 57.2 °F /  14 °C 29.67 in /  1004.6 hPa NNW 1.2 mph /  1.9 km/h 0.6 mph /  1 km/h 26 % 0.00 in /  0 mm
14:54 97.8 °F /  36.6 °C 54.9 °F /  12.7 °C 29.67 in /  1004.6 hPa West 2.3 mph /  3.7 km/h 0.1 mph /  0.2 km/h 24 % 0.00 in /  0 mm
14:59 97.9 °F /  36.6 °C 57.2 °F /  14 °C 29.67 in /  1004.6 hPa WNW 2.3 mph /  3.7 km/h 0.2 mph /  0.3 km/h 26 % 0.00 in /  0 mm
15:05 98.0 °F /  36.7 °C 56.2 °F /  13.4 °C 29.67 in /  1004.6 hPa NW 2.3 mph /  3.7 km/h 0.9 mph /  1.4 km/h 25 % 0.00 in /  0 mm
15:09 97.9 °F /  36.6 °C 56.1 °F /  13.4 °C 29.67 in /  1004.6 hPa West 3.5 mph /  5.6 km/h 0.9 mph /  1.4 km/h 25 % 0.00 in /  0 mm
15:15 98.6 °F /  37 °C 56.7 °F /  13.7 °C 29.67 in /  1004.6 hPa SSE 1.2 mph /  1.9 km/h   25 % 0.00 in /  0 mm
15:19 99.3 °F /  37.4 °C 55.0 °F /  12.8 °C 29.66 in /  1004.3 hPa WNW 1.2 mph /  1.9 km/h 1.6 mph /  2.6 km/h 23 % 0.00 in /  0 mm
15:25 99.2 °F /  37.3 °C 52.4 °F /  11.3 °C 29.66 in /  1004.3 hPa NNW 3.5 mph /  5.6 km/h 1.6 mph /  2.6 km/h 21 % 0.00 in /  0 mm
15:29 99.4 °F /  37.4 °C 53.8 °F /  12.1 °C 29.66 in /  1004.3 hPa SSE 2.3 mph /  3.7 km/h 0.6 mph /  1 km/h 22 % 0.00 in /  0 mm
15:34 99.6 °F /  37.6 °C 54.0 °F /  12.2 °C 29.66 in /  1004.3 hPa NW 2.3 mph /  3.7 km/h 0.8 mph /  1.3 km/h 22 % 0.00 in /  0 mm
15:39 99.0 °F /  37.2 °C 50.9 °F /  10.5 °C 29.66 in /  1004.3 hPa NW 3.5 mph /  5.6 km/h 1.5 mph /  2.4 km/h 20 % 0.00 in /  0 mm
15:44 98.7 °F /  37.1 °C 50.7 °F /  10.4 °C 29.66 in /  1004.3 hPa WSW 3.5 mph /  5.6 km/h 1.6 mph /  2.6 km/h 20 % 0.00 in /  0 mm
15:49 98.5 °F /  36.9 °C 50.5 °F /  10.3 °C 29.65 in /  1003.9 hPa WNW 3.5 mph /  5.6 km/h 1.2 mph /  1.9 km/h 20 % 0.00 in /  0 mm
15:54 98.5 °F /  36.9 °C 47.7 °F /  8.7 °C 29.65 in /  1003.9 hPa WNW 2.3 mph /  3.7 km/h 1.5 mph /  2.4 km/h 18 % 0.00 in /  0 mm
15:59 98.8 °F /  37.1 °C 49.4 °F /  9.7 °C 29.65 in /  1003.9 hPa West 2.3 mph /  3.7 km/h 0.2 mph /  0.3 km/h 19 % 0.00 in /  0 mm
16:04 99.1 °F /  37.3 °C 49.6 °F /  9.8 °C 29.65 in /  1003.9 hPa North 2.3 mph /  3.7 km/h 0.2 mph /  0.3 km/h 19 % 0.00 in /  0 mm
16:09 99.4 °F /  37.4 °C 49.9 °F /  9.9 °C 29.65 in /  1003.9 hPa North 2.3 mph /  3.7 km/h 0.7 mph /  1.1 km/h 19 % 0.00 in /  0 mm
16:14 99.7 °F /  37.6 °C 50.1 °F /  10.1 °C 29.65 in /  1003.9 hPa WSW 3.0 mph /  4.8 km/h 1.2 mph /  1.9 km/h 19 % 0.00 in /  0 mm
16:19 99.6 °F /  37.6 °C 51.4 °F /  10.8 °C 29.65 in /  1003.9 hPa WSW 3.5 mph /  5.6 km/h 1.3 mph /  2.1 km/h 20 % 0.00 in /  0 mm
16:24 99.6 °F /  37.6 °C 51.4 °F /  10.8 °C 29.64 in /  1003.6 hPa NW 1.2 mph /  1.9 km/h 0.5 mph /  0.8 km/h 20 % 0.00 in /  0 mm
16:29 100.0 °F /  37.8 °C 51.7 °F /  10.9 °C 29.64 in /  1003.6 hPa WNW 1.2 mph /  1.9 km/h 0.4 mph /  0.6 km/h 20 % 0.00 in /  0 mm
16:34 99.9 °F /  37.7 °C 51.7 °F /  10.9 °C 29.64 in /  1003.6 hPa NW 2.0 mph /  3.2 km/h 0.9 mph /  1.4 km/h 20 % 0.00 in /  0 mm
16:39 99.7 °F /  37.6 °C 51.5 °F /  10.8 °C 29.64 in /  1003.6 hPa NW 1.2 mph /  1.9 km/h 0.2 mph /  0.3 km/h 20 % 0.00 in /  0 mm
16:44 99.4 °F /  37.4 °C 48.4 °F /  9.1 °C 29.64 in /  1003.6 hPa WNW 3.5 mph /  5.6 km/h 1.6 mph /  2.6 km/h 18 % 0.00 in /  0 mm
16:49 99.2 °F /  37.3 °C 48.2 °F /  9 °C 29.63 in /  1003.3 hPa NW 2.3 mph /  3.7 km/h 1.2 mph /  1.9 km/h 18 % 0.00 in /  0 mm
16:54 99.1 °F /  37.3 °C 51.0 °F /  10.6 °C 29.63 in /  1003.3 hPa WSW 1.2 mph /  1.9 km/h 0.5 mph /  0.8 km/h 20 % 0.00 in /  0 mm
16:59 99.2 °F /  37.3 °C 46.7 °F /  8.2 °C 29.63 in /  1003.3 hPa WNW 2.3 mph /  3.7 km/h 1.9 mph /  3.1 km/h 17 % 0.00 in /  0 mm
17:04 99.2 °F /  37.3 °C 49.7 °F /  9.8 °C 29.63 in /  1003.3 hPa NW 2.0 mph /  3.2 km/h 1.0 mph /  1.6 km/h 19 % 0.00 in /  0 mm
17:09 99.2 °F /  37.3 °C 45.1 °F /  7.3 °C 29.62 in /  1002.9 hPa North 2.3 mph /  3.7 km/h 0.2 mph /  0.3 km/h 16 % 0.00 in /  0 mm
17:14 99.6 °F /  37.6 °C 47.0 °F /  8.3 °C 29.62 in /  1002.9 hPa SW 2.3 mph /  3.7 km/h 0.4 mph /  0.6 km/h 17 % 0.00 in /  0 mm
17:19 100.0 °F /  37.8 °C 50.3 °F /  10.2 °C 29.62 in /  1002.9 hPa NW 2.3 mph /  3.7 km/h 1.1 mph /  1.8 km/h 19 % 0.00 in /  0 mm
17:25 99.9 °F /  37.7 °C 45.7 °F /  7.6 °C 29.62 in /  1002.9 hPa NW 1.2 mph /  1.9 km/h   16 % 0.00 in /  0 mm
17:29 99.7 °F /  37.6 °C 47.1 °F /  8.4 °C 29.61 in /  1002.6 hPa WNW 3.0 mph /  4.8 km/h 1.2 mph /  1.9 km/h 17 % 0.00 in /  0 mm
17:34 99.3 °F /  37.4 °C 45.2 °F /  7.3 °C 29.61 in /  1002.6 hPa North 4.6 mph /  7.4 km/h 2.2 mph /  3.5 km/h 16 % 0.00 in /  0 mm
17:40 99.2 °F /  37.3 °C 46.7 °F /  8.2 °C 29.61 in /  1002.6 hPa WNW 1.2 mph /  1.9 km/h 0.2 mph /  0.3 km/h 17 % 0.00 in /  0 mm
17:44 99.5 °F /  37.5 °C 47.0 °F /  8.3 °C 29.61 in /  1002.6 hPa NW 1.0 mph /  1.6 km/h 0.9 mph /  1.4 km/h 17 % 0.00 in /  0 mm
17:49 99.3 °F /  37.4 °C 49.8 °F /  9.9 °C 29.61 in /  1002.6 hPa NW 1.2 mph /  1.9 km/h 0.5 mph /  0.8 km/h 19 % 0.00 in /  0 mm
17:55 99.3 °F /  37.4 °C 45.2 °F /  7.3 °C 29.61 in /  1002.6 hPa WNW 2.3 mph /  3.7 km/h 0.5 mph /  0.8 km/h 16 % 0.00 in /  0 mm
17:59 99.4 °F /  37.4 °C 49.9 °F /  9.9 °C 29.61 in /  1002.6 hPa NE 1.2 mph /  1.9 km/h 0.1 mph /  0.2 km/h 19 % 0.00 in /  0 mm
18:04 99.6 °F /  37.6 °C 51.4 °F /  10.8 °C 29.61 in /  1002.6 hPa Calm   0.1 mph /  0.2 km/h 20 % 0.00 in /  0 mm
18:09 99.5 °F /  37.5 °C 48.5 °F /  9.2 °C 29.61 in /  1002.6 hPa NNW 1.2 mph /  1.9 km/h 0.1 mph /  0.2 km/h 18 % 0.00 in /  0 mm
18:14 99.5 °F /  37.5 °C 49.9 °F /  9.9 °C 29.61 in /  1002.6 hPa Calm     19 % 0.00 in /  0 mm
18:19 99.9 °F /  37.7 °C 51.7 °F /  10.9 °C 29.61 in /  1002.6 hPa Calm     20 % 0.00 in /  0 mm
18:24 100.0 °F /  37.8 °C 50.3 °F /  10.2 °C 29.61 in /  1002.6 hPa NW 1.2 mph /  1.9 km/h 1.6 mph /  2.6 km/h 19 % 0.00 in /  0 mm
18:29 99.0 °F /  37.2 °C 50.9 °F /  10.5 °C 29.61 in /  1002.6 hPa NW 1.0 mph /  1.6 km/h 0.7 mph /  1.1 km/h 20 % 0.00 in /  0 mm
18:34 98.7 °F /  37.1 °C 50.7 °F /  10.4 °C 29.61 in /  1002.6 hPa NW 1.2 mph /  1.9 km/h   20 % 0.00 in /  0 mm
18:39 98.3 °F /  36.8 °C 49.0 °F /  9.4 °C 29.61 in /  1002.6 hPa NW 2.0 mph /  3.2 km/h 0.8 mph /  1.3 km/h 19 % 0.00 in /  0 mm
18:44 97.9 °F /  36.6 °C 47.2 °F /  8.4 °C 29.61 in /  1002.6 hPa NW 1.2 mph /  1.9 km/h 0.4 mph /  0.6 km/h 18 % 0.00 in /  0 mm
18:50 97.8 °F /  36.6 °C 47.1 °F /  8.4 °C 29.61 in /  1002.6 hPa NW 1.2 mph /  1.9 km/h 0.8 mph /  1.3 km/h 18 % 0.00 in /  0 mm
18:55 97.2 °F /  36.2 °C 49.4 °F /  9.7 °C 29.61 in /  1002.6 hPa NW 1.2 mph /  1.9 km/h 0.1 mph /  0.2 km/h 20 % 0.00 in /  0 mm
18:59 96.5 °F /  35.8 °C 47.5 °F /  8.6 °C 29.61 in /  1002.6 hPa NW 1.2 mph /  1.9 km/h 0.9 mph /  1.4 km/h 19 % 0.00 in /  0 mm
19:04 96.1 °F /  35.6 °C 47.2 °F /  8.4 °C 29.61 in /  1002.6 hPa WNW 1.2 mph /  1.9 km/h 0.3 mph /  0.5 km/h 19 % 0.00 in /  0 mm
19:10 96.2 °F /  35.7 °C 48.6 °F /  9.2 °C 29.61 in /  1002.6 hPa WNW 1.2 mph /  1.9 km/h 0.3 mph /  0.5 km/h 20 % 0.00 in /  0 mm
19:14 96.1 °F /  35.6 °C 48.5 °F /  9.2 °C 29.61 in /  1002.6 hPa WNW 1.2 mph /  1.9 km/h   20 % 0.00 in /  0 mm
19:19 95.4 °F /  35.2 °C 48.0 °F /  8.9 °C 29.61 in /  1002.6 hPa WNW 1.2 mph /  1.9 km/h 0.3 mph /  0.5 km/h 20 % 0.00 in /  0 mm
19:24 94.7 °F /  34.8 °C 48.7 °F /  9.3 °C 29.61 in /  1002.6 hPa Calm     21 % 0.00 in /  0 mm
19:29 94.1 °F /  34.5 °C 49.4 °F /  9.7 °C 29.61 in /  1002.6 hPa NW 1.2 mph /  1.9 km/h   22 % 0.00 in /  0 mm
19:34 93.7 °F /  34.3 °C 50.3 °F /  10.2 °C 29.61 in /  1002.6 hPa Calm     23 % 0.00 in /  0 mm
19:39 93.0 °F /  33.9 °C 50.9 °F /  10.5 °C 29.61 in /  1002.6 hPa Calm     24 % 0.00 in /  0 mm
19:44 92.2 °F /  33.4 °C 51.3 °F /  10.7 °C 29.61 in /  1002.6 hPa Calm     25 % 0.00 in /  0 mm
19:49 91.4 °F /  33 °C 54.7 °F /  12.6 °C 29.61 in /  1002.6 hPa Calm     29 % 0.00 in /  0 mm
19:54 90.2 °F /  32.3 °C 56.4 °F /  13.6 °C 29.61 in /  1002.6 hPa Calm     32 % 0.00 in /  0 mm
19:59 89.2 °F /  31.8 °C 55.5 °F /  13.1 °C 29.61 in /  1002.6 hPa Calm     32 % 0.00 in /  0 mm
20:04 88.5 °F /  31.4 °C 54.0 °F /  12.2 °C 29.61 in /  1002.6 hPa Calm     31 % 0.00 in /  0 mm
20:09 87.8 °F /  31 °C 56.7 °F /  13.7 °C 29.61 in /  1002.6 hPa Calm     35 % 0.00 in /  0 mm
20:14 86.9 °F /  30.5 °C 56.7 °F /  13.7 °C 29.61 in /  1002.6 hPa Calm     36 % 0.00 in /  0 mm
20:19 86.0 °F /  30 °C 52.7 °F /  11.5 °C 29.61 in /  1002.6 hPa Calm     32 % 0.00 in /  0 mm
20:24 85.4 °F /  29.7 °C 53.0 °F /  11.7 °C 29.61 in /  1002.6 hPa Calm     33 % 0.00 in /  0 mm
20:29 84.5 °F /  29.2 °C 53.8 °F /  12.1 °C 29.61 in /  1002.6 hPa ESE 1.2 mph /  1.9 km/h   35 % 0.00 in /  0 mm
20:34 83.6 °F /  28.7 °C 53.1 °F /  11.7 °C 29.61 in /  1002.6 hPa Calm     35 % 0.00 in /  0 mm
20:39 82.9 °F /  28.3 °C 51.6 °F /  10.9 °C 29.61 in /  1002.6 hPa Calm     34 % 0.00 in /  0 mm
20:44 82.4 °F /  28 °C 52.0 °F /  11.1 °C 29.62 in /  1002.9 hPa Calm     35 % 0.00 in /  0 mm
20:49 81.6 °F /  27.6 °C 52.1 °F /  11.2 °C 29.62 in /  1002.9 hPa Calm     36 % 0.00 in /  0 mm
20:54 81.0 °F /  27.2 °C 51.5 °F /  10.8 °C 29.62 in /  1002.9 hPa ESE 1.2 mph /  1.9 km/h   36 % 0.00 in /  0 mm
20:59 80.5 °F /  26.9 °C 51.8 °F /  11 °C 29.62 in /  1002.9 hPa SE 1.2 mph /  1.9 km/h   37 % 0.00 in /  0 mm
21:05 80.3 °F /  26.8 °C 50.1 °F /  10.1 °C 29.62 in /  1002.9 hPa ESE 1.2 mph /  1.9 km/h 0.1 mph /  0.2 km/h 35 % 0.00 in /  0 mm
21:09 80.3 °F /  26.8 °C 50.9 °F /  10.5 °C 29.62 in /  1002.9 hPa SE 1.2 mph /  1.9 km/h   36 % 0.00 in /  0 mm
21:14 80.2 °F /  26.8 °C 50.1 °F /  10.1 °C 29.63 in /  1003.3 hPa ESE 1.2 mph /  1.9 km/h 0.1 mph /  0.2 km/h 35 % 0.00 in /  0 mm
21:19 80.0 °F /  26.7 °C 49.1 °F /  9.5 °C 29.63 in /  1003.3 hPa SE 2.3 mph /  3.7 km/h 0.7 mph /  1.1 km/h 34 % 0.00 in /  0 mm
21:24 79.6 °F /  26.4 °C 48.8 °F /  9.3 °C 29.63 in /  1003.3 hPa ESE 1.2 mph /  1.9 km/h 0.5 mph /  0.8 km/h 34 % 0.00 in /  0 mm
21:29 79.0 °F /  26.1 °C 48.2 °F /  9 °C 29.63 in /  1003.3 hPa SE 2.0 mph /  3.2 km/h 0.3 mph /  0.5 km/h 34 % 0.00 in /  0 mm
21:34 78.9 °F /  26.1 °C 46.5 °F /  8.1 °C 29.63 in /  1003.3 hPa SE 2.3 mph /  3.7 km/h 0.5 mph /  0.8 km/h 32 % 0.00 in /  0 mm
21:39 79.2 °F /  26.2 °C 46.8 °F /  8.2 °C 29.64 in /  1003.6 hPa SE 1.2 mph /  1.9 km/h   32 % 0.00 in /  0 mm
21:44 78.8 °F /  26 °C 47.3 °F /  8.5 °C 29.64 in /  1003.6 hPa ESE 1.2 mph /  1.9 km/h   33 % 0.00 in /  0 mm
21:49 78.3 °F /  25.7 °C 46.8 °F /  8.2 °C 29.65 in /  1003.9 hPa ESE 1.2 mph /  1.9 km/h   33 % 0.00 in /  0 mm
21:54 78.0 °F /  25.6 °C 45.7 °F /  7.6 °C 29.65 in /  1003.9 hPa East 1.2 mph /  1.9 km/h   32 % 0.00 in /  0 mm
21:59 78.1 °F /  25.6 °C 45.0 °F /  7.2 °C 29.65 in /  1003.9 hPa ESE 1.2 mph /  1.9 km/h 0.1 mph /  0.2 km/h 31 % 0.00 in /  0 mm
22:05 77.9 °F /  25.5 °C 44.8 °F /  7.1 °C 29.65 in /  1003.9 hPa ESE 1.2 mph /  1.9 km/h 0.1 mph /  0.2 km/h 31 % 0.00 in /  0 mm
22:09 77.5 °F /  25.3 °C 44.5 °F /  6.9 °C 29.66 in /  1004.3 hPa SE 3.5 mph /  5.6 km/h 0.1 mph /  0.2 km/h 31 % 0.00 in /  0 mm
22:14 77.4 °F /  25.2 °C 44.4 °F /  6.9 °C 29.66 in /  1004.3 hPa East 2.3 mph /  3.7 km/h 0.1 mph /  0.2 km/h 31 % 0.00 in /  0 mm
22:19 77.4 °F /  25.2 °C 44.4 °F /  6.9 °C 29.66 in /  1004.3 hPa ESE 1.2 mph /  1.9 km/h 0.1 mph /  0.2 km/h 31 % 0.00 in /  0 mm
22:24 77.5 °F /  25.3 °C 43.6 °F /  6.4 °C 29.66 in /  1004.3 hPa ESE 4.0 mph /  6.4 km/h 0.9 mph /  1.4 km/h 30 % 0.00 in /  0 mm
22:30 77.4 °F /  25.2 °C 43.5 °F /  6.4 °C 29.66 in /  1004.3 hPa SSE 1.2 mph /  1.9 km/h 0.2 mph /  0.3 km/h 30 % 0.00 in /  0 mm
22:34 77.3 °F /  25.2 °C 43.4 °F /  6.3 °C 29.66 in /  1004.3 hPa NE 1.0 mph /  1.6 km/h 0.1 mph /  0.2 km/h 30 % 0.00 in /  0 mm
22:39 77.3 °F /  25.2 °C 43.4 °F /  6.3 °C 29.66 in /  1004.3 hPa East 1.2 mph /  1.9 km/h 0.3 mph /  0.5 km/h 30 % 0.00 in /  0 mm
22:45 77.1 °F /  25.1 °C 42.4 °F /  5.8 °C 29.66 in /  1004.3 hPa ESE 3.5 mph /  5.6 km/h 0.5 mph /  0.8 km/h 29 % 0.00 in /  0 mm
22:49 76.9 °F /  24.9 °C 42.2 °F /  5.7 °C 29.66 in /  1004.3 hPa Calm     29 % 0.00 in /  0 mm
22:54 76.6 °F /  24.8 °C 42.0 °F /  5.6 °C 29.66 in /  1004.3 hPa SE 1.2 mph /  1.9 km/h   29 % 0.00 in /  0 mm
22:59 76.2 °F /  24.6 °C 41.6 °F /  5.3 °C 29.66 in /  1004.3 hPa Calm     29 % 0.00 in /  0 mm
23:04 75.8 °F /  24.3 °C 41.3 °F /  5.2 °C 29.66 in /  1004.3 hPa SE 1.2 mph /  1.9 km/h 0.2 mph /  0.3 km/h 29 % 0.00 in /  0 mm
23:09 75.3 °F /  24.1 °C 40.8 °F /  4.9 °C 29.66 in /  1004.3 hPa ESE 1.2 mph /  1.9 km/h 0.3 mph /  0.5 km/h 29 % 0.00 in /  0 mm
23:14 75.0 °F /  23.9 °C 41.5 °F /  5.3 °C 29.66 in /  1004.3 hPa Calm     30 % 0.00 in /  0 mm
23:19 74.7 °F /  23.7 °C 42.0 °F /  5.6 °C 29.66 in /  1004.3 hPa Calm     31 % 0.00 in /  0 mm
23:24 74.1 °F /  23.4 °C 42.3 °F /  5.7 °C 29.66 in /  1004.3 hPa Calm     32 % 0.00 in /  0 mm
23:29 73.7 °F /  23.2 °C 42.8 °F /  6 °C 29.66 in /  1004.3 hPa Calm     33 % 0.00 in /  0 mm
23:35 73.4 °F /  23 °C 42.5 °F /  5.8 °C 29.66 in /  1004.3 hPa Calm     33 % 0.00 in /  0 mm
23:39 73.1 °F /  22.8 °C 43.8 °F /  6.6 °C 29.67 in /  1004.6 hPa Calm     35 % 0.00 in /  0 mm
23:45 72.5 °F /  22.5 °C 43.3 °F /  6.3 °C 29.66 in /  1004.3 hPa Calm     35 % 0.00 in /  0 mm
23:49 72.1 °F /  22.3 °C 43.7 °F /  6.5 °C 29.66 in /  1004.3 hPa Calm     36 % 0.00 in /  0 mm
23:54 71.8 °F /  22.1 °C 44.1 °F /  6.7 °C 29.66 in /  1004.3 hPa Calm     37 % 0.00 in /  0 mm
23:59 71.3 °F /  21.8 °C 45.1 °F /  7.3 °C 29.66 in /  1004.3 hPa Calm     39 % 0.00 in /  0 mm
Park Place, Exeter, Tulare County, California, USA
Compliments of Weather Underground - 2.75 mb